Airfield :
LOGIN :

Register | Disclaimer

   EN    FR    IT 

 










Legend :    VFR   Marginal VFR   IFR   Intensive IFR   Very Intensive IFR
Visi :
Ceiling :
>= 8 km
>= 3000ft
5 to 8 km
1000 to 3000 ft
1500m to 5 km
500 to 1000 ft
800 to 1500m
200 to 500 ft
< 800m
< 200 ft
Symbols :   Thunderstorms  Fog  Heavy snow  Heavy precipitations  Wind > 20 kt
SIGMETs :     Misc.  Thunderstorms  Icing  Turbulence  Mountain Waves  Volcanic Ashes







- Airport Elevation : 3 ft
- IATA code : DHR


EHKD - Den Helder De Kooy

CURRENT METAR :
  • 241235Z AUTO 16017KT 130V210 9999 SCT052 BKN057 24/10 Q0997 BLU 16015G25KT CAVOK

EXPIRED METARs :
  • 241225Z AUTO 17017KT 140V210 9999 BKN053 BKN059 23/10 Q0997 BLU 16010KT CAVOK
  • 241155Z AUTO 15015KT 110V180 9999 NCD 23/11 Q0997 BLU 16010KT CAVOK
  • 241125Z AUTO 15017KT 110V180 9999 NCD 23/10 Q0997 BLU 16010KT CAVOK
  • 241055Z AUTO 16012KT 110V190 9999 OVC110 22/11 Q0997 BLU 16010KT CAVOK
  • 241025Z AUTO 16013KT 130V200 9999 NCD 21/12 Q0997 BLU 16010KT CAVOK
  • 240955Z AUTO 14014KT 110V180 9999 NCD 21/12 Q0997 BLU 16010KT CAVOK

TAF COR TAF EHKD
Valid from the 24 at 09:00 until the 24 at 21:00 UTC


240850Z 2409/2421 17012KT CAVOK
TEMPO 2410/2419 17015G25KT
TEMPO 2419/2421 17018G30KT 4000 SHRA FEW020 SCT045CB BKN070
PROB30
TEMPO 2419/2421 2500 TSRAGR FEW015 SCT030CB BKN070
No reported NOTAMs for that airfield.



MET'MAP, your aeronautical weather chart ! - Copyright ORBIFLY December 2007 - Disclaimer

ORBIFLY MET'MAP TEAM :

Programming & Development : Alexandra Zaïnal
Concept & Development : Baudouin d'Aumeries
Co-Development & Prog : Marc-Olivier Méhu
Technical & hardware support : Manuel Goepfert

Contact : metmap@orbifly.com




SOURCES & CREDITS :

   NOAA